Time;durP1;ratioP1;P1;durP2;ratioP2;P2;SDS_P1;SDS_P2;PMS_P1;PMS_P2;Temp;Humidity;BMP_temperature;BMP_pressure;BME280_temperature;BME280_humidity;BME280_pressure;Samples;Min_cycle;Max_cycle;Signal;HPM_P1;HPM_P2
2021/01/16 00:01:24;;;;;;;3.65;2.40;;;18.00;52.50;;;;;;5108172;28;20180;-58
2021/01/16 00:03:49;;;;;;;3.03;2.55;;;17.90;52.50;;;;;;5108235;28;20212;-60
2021/01/16 00:06:15;;;;;;;2.83;2.45;;;17.90;52.50;;;;;;5108517;28;20173;-58
2021/01/16 00:08:42;;;;;;;2.92;2.72;;;17.90;52.50;;;;;;5108109;28;20231;-60
2021/01/16 00:11:08;;;;;;;3.20;2.85;;;17.80;52.40;;;;;;5108288;28;20162;-61
2021/01/16 00:13:34;;;;;;;3.40;3.03;;;17.80;52.40;;;;;;5108141;28;20508;-61
2021/01/16 00:16:00;;;;;;;3.10;2.90;;;17.80;52.40;;;;;;5108014;28;20177;-60
2021/01/16 00:18:26;;;;;;;2.78;2.58;;;17.80;52.40;;;;;;5108054;28;20175;-60
2021/01/16 00:20:53;;;;;;;2.85;2.65;;;17.80;52.40;;;;;;5108169;28;20181;-60
2021/01/16 00:23:22;;;;;;;2.90;2.70;;;17.80;52.30;;;;;;5107916;28;20201;-60
2021/01/16 00:25:48;;;;;;;3.25;2.90;;;17.70;52.30;;;;;;5077922;28;20178;-60
2021/01/16 00:28:24;;;;;;;3.17;2.85;;;17.70;52.30;;;;;;5086951;28;20196;-61
2021/01/16 00:30:49;;;;;;;3.38;2.88;;;17.70;52.30;;;;;;5087515;28;20173;-59
2021/01/16 00:33:19;;;;;;;3.20;2.90;;;17.70;52.20;;;;;;5087562;28;20174;-59
2021/01/16 00:35:45;;;;;;;3.22;2.92;;;17.60;52.20;;;;;;5087587;28;20215;-60
2021/01/16 00:38:10;;;;;;;4.03;3.05;;;17.60;52.10;;;;;;5087407;28;20177;-59
2021/01/16 00:40:37;;;;;;;3.20;2.90;;;17.60;52.10;;;;;;5087552;28;20986;-61
2021/01/16 00:43:05;;;;;;;3.33;3.08;;;17.60;52.10;;;;;;5086820;28;20193;-60
2021/01/16 00:45:31;;;;;;;3.30;3.00;;;17.60;52.10;;;;;;5087190;28;20247;-60
2021/01/16 00:47:56;;;;;;;3.20;3.00;;;17.60;52.10;;;;;;5087926;28;20177;-60
2021/01/16 00:50:22;;;;;;;3.20;2.90;;;17.60;52.10;;;;;;5068850;28;20196;-60
2021/01/16 00:52:58;;;;;;;2.97;2.78;;;17.50;52.00;;;;;;5087175;28;20180;-60
2021/01/16 00:55:23;;;;;;;3.50;3.17;;;17.50;52.00;;;;;;5087052;28;20528;-60
2021/01/16 00:57:49;;;;;;;3.90;3.50;;;17.50;52.60;;;;;;5087102;28;20174;-60
2021/01/16 01:00:16;;;;;;;3.88;3.35;;;17.50;52.00;;;;;;5086960;28;20177;-60
2021/01/16 01:02:42;;;;;;;3.47;3.17;;;17.50;52.60;;;;;;5086820;28;20663;-59
2021/01/16 01:05:11;;;;;;;3.25;2.95;;;17.40;51.90;;;;;;5085578;28;20182;-60
2021/01/16 01:07:37;;;;;;;3.20;3.00;;;17.40;51.90;;;;;;5086917;28;20542;-60
2021/01/16 01:10:07;;;;;;;3.38;3.05;;;17.40;51.80;;;;;;5086975;28;20170;-60
2021/01/16 01:12:33;;;;;;;3.47;3.28;;;17.40;51.80;;;;;;5086565;28;20296;-60
2021/01/16 01:14:59;;;;;;;3.88;3.58;;;17.40;51.80;;;;;;5086721;28;20260;-61
2021/01/16 01:17:24;;;;;;;3.83;3.30;;;17.30;51.80;;;;;;5086922;28;20627;-60
2021/01/16 01:19:50;;;;;;;3.70;3.30;;;17.30;51.80;;;;;;5086945;28;20174;-61
2021/01/16 01:22:15;;;;;;;3.60;3.30;;;17.40;51.70;;;;;;5086848;28;20215;-60
2021/01/16 01:24:41;;;;;;;3.60;3.30;;;17.30;51.70;;;;;;5089286;28;20201;-60
2021/01/16 01:27:06;;;;;;;4.05;3.40;;;17.30;51.80;;;;;;5106992;28;20626;-60
2021/01/16 01:29:32;;;;;;;3.80;3.50;;;17.30;51.70;;;;;;5106913;28;20212;-60
2021/01/16 01:31:58;;;;;;;3.38;3.08;;;17.20;51.60;;;;;;5107051;28;20231;-59
2021/01/16 01:34:23;;;;;;;3.80;3.50;;;17.30;51.70;;;;;;5106754;28;20205;-60
2021/01/16 01:36:49;;;;;;;4.10;3.72;;;17.20;51.60;;;;;;5107279;28;20499;-59
2021/01/16 01:39:14;;;;;;;4.15;3.80;;;17.30;51.60;;;;;;5106440;28;20173;-61
2021/01/16 01:41:40;;;;;;;3.90;3.50;;;17.20;51.50;;;;;;5106799;28;20234;-60
2021/01/16 01:44:06;;;;;;;4.03;3.58;;;17.20;51.50;;;;;;5106625;28;20204;-60
2021/01/16 01:46:33;;;;;;;3.50;3.20;;;17.20;51.60;;;;;;5106835;28;20185;-60
2021/01/16 01:48:59;;;;;;;3.97;3.58;;;17.20;51.50;;;;;;5106676;28;20188;-60
2021/01/16 01:51:24;;;;;;;5.07;3.95;;;17.10;51.50;;;;;;5088680;28;20290;-60
2021/01/16 01:53:51;;;;;;;4.00;3.70;;;17.10;51.50;;;;;;5088367;28;20413;-60
2021/01/16 01:56:17;;;;;;;3.83;3.53;;;17.20;51.50;;;;;;5088457;28;20300;-60
2021/01/16 01:58:43;;;;;;;4.32;3.92;;;17.10;51.50;;;;;;5071476;28;21026;-59
2021/01/16 02:01:08;;;;;;;3.75;3.45;;;17.10;51.50;;;;;;5106292;28;20165;-61
2021/01/16 02:03:34;;;;;;;4.03;3.72;;;17.10;51.50;;;;;;5071039;28;20993;-60
2021/01/16 02:05:59;;;;;;;3.95;3.63;;;17.10;51.40;;;;;;5071137;28;20544;-58
2021/01/16 02:08:25;;;;;;;4.38;3.97;;;17.10;51.40;;;;;;5105684;28;20177;-60
2021/01/16 02:10:51;;;;;;;4.32;3.92;;;17.10;51.50;;;;;;5105646;28;20180;-59
2021/01/16 02:13:16;;;;;;;4.15;3.85;;;17.10;51.40;;;;;;5105906;28;20280;-61
2021/01/16 02:16:03;;;;;;;3.70;3.40;;;17.00;52.00;;;;;;5087661;28;20226;-60
2021/01/16 02:18:38;;;;;;;4.65;4.25;;;17.00;51.40;;;;;;5105865;28;20596;-59
2021/01/16 02:21:05;;;;;;;4.45;4.05;;;17.00;51.30;;;;;;5105699;28;20259;-60
2021/01/16 02:23:38;;;;;;;4.13;3.72;;;17.00;51.30;;;;;;5087549;28;20205;-60
2021/01/16 02:26:16;;;;;;;4.35;3.95;;;17.00;51.30;;;;;;5091101;28;20178;-59
2021/01/16 02:28:51;;;;;;;4.32;3.92;;;17.00;51.30;;;;;;5085112;28;20267;-60
2021/01/16 02:31:17;;;;;;;4.15;3.75;;;16.90;51.30;;;;;;5067398;28;20274;-58
2021/01/16 02:33:44;;;;;;;4.07;3.47;;;16.90;51.30;;;;;;5085301;28;20948;-59
2021/01/16 02:36:28;;;;;;;3.92;3.63;;;16.90;51.30;;;;;;5066987;28;20698;-58
2021/01/16 02:39:15;;;;;;;4.18;3.78;;;16.90;51.30;;;;;;5085004;28;20552;-58
2021/01/16 02:41:50;;;;;;;4.10;3.80;;;16.90;51.30;;;;;;5085138;28;20185;-60
2021/01/16 02:44:42;;;;;;;4.20;3.90;;;16.90;51.20;;;;;;5085192;28;20216;-60
2021/01/16 02:47:19;;;;;;;4.20;3.90;;;16.90;51.30;;;;;;5066757;28;20241;-60
2021/01/16 02:49:59;;;;;;;4.53;4.10;;;16.90;51.30;;;;;;5068517;28;20169;-59
2021/01/16 02:52:27;;;;;;;3.97;3.67;;;16.80;51.20;;;;;;5068988;28;20183;-59
2021/01/16 02:54:52;;;;;;;4.10;3.70;;;16.90;51.20;;;;;;5066968;28;20193;-60
2021/01/16 02:57:18;;;;;;;4.60;4.20;;;16.80;51.30;;;;;;5066512;28;20653;-59
2021/01/16 02:59:45;;;;;;;4.20;3.90;;;16.80;51.20;;;;;;5084834;28;20170;-60
2021/01/16 03:02:14;;;;;;;3.90;3.60;;;16.80;51.20;;;;;;5085087;28;20391;-59
2021/01/16 03:04:40;;;;;;;4.32;4.00;;;16.80;51.20;;;;;;5084631;28;20244;-58
2021/01/16 03:07:07;;;;;;;5.20;4.28;;;16.80;51.20;;;;;;5084672;28;20209;-60
2021/01/16 03:09:33;;;;;;;4.28;3.88;;;16.80;51.20;;;;;;5084760;28;20631;-61
2021/01/16 03:11:59;;;;;;;4.40;4.00;;;16.70;51.20;;;;;;5084589;28;20181;-60
2021/01/16 03:14:27;;;;;;;5.10;4.60;;;16.80;51.30;;;;;;5084674;28;20178;-60
2021/01/16 03:17:09;;;;;;;3.72;3.38;;;16.80;51.10;;;;;;5084773;28;20170;-60
2021/01/16 03:19:36;;;;;;;4.70;4.07;;;16.70;51.10;;;;;;5084132;28;20173;-60
2021/01/16 03:22:24;;;;;;;3.70;3.40;;;16.70;51.10;;;;;;5084416;28;20178;-60
2021/01/16 03:24:51;;;;;;;4.40;4.00;;;16.70;51.20;;;;;;5088344;28;20272;-60
2021/01/16 03:27:18;;;;;;;4.60;4.20;;;16.70;51.10;;;;;;5103930;28;20161;-60
2021/01/16 03:29:44;;;;;;;4.00;3.70;;;16.70;51.10;;;;;;5103991;28;20299;-61
2021/01/16 03:32:09;;;;;;;4.50;4.10;;;16.70;51.10;;;;;;5104428;28;20260;-57
2021/01/16 03:34:35;;;;;;;4.00;3.70;;;16.70;51.10;;;;;;5104295;28;20264;-59
2021/01/16 03:37:01;;;;;;;4.10;3.80;;;16.70;51.10;;;;;;5104585;28;20642;-59
2021/01/16 03:39:27;;;;;;;4.35;4.05;;;16.60;51.00;;;;;;5104404;28;20177;-60
2021/01/16 03:41:52;;;;;;;4.43;3.78;;;16.60;51.00;;;;;;5104500;28;20528;-61
2021/01/16 03:44:18;;;;;;;4.20;3.90;;;16.60;51.00;;;;;;5104282;28;20557;-60
2021/01/16 03:46:43;;;;;;;4.50;4.10;;;16.60;51.10;;;;;;5104475;28;20184;-60
2021/01/16 03:49:09;;;;;;;4.50;4.10;;;16.60;51.10;;;;;;5104618;28;20229;-60
2021/01/16 03:51:34;;;;;;;4.07;3.78;;;16.60;51.10;;;;;;5104677;28;20204;-59
2021/01/16 03:54:00;;;;;;;4.45;4.00;;;16.50;51.00;;;;;;5104234;28;20634;-60
2021/01/16 03:56:26;;;;;;;4.55;4.10;;;16.60;51.00;;;;;;5104253;28;20173;-60
2021/01/16 03:58:51;;;;;;;4.07;3.78;;;16.60;51.00;;;;;;5104407;28;20187;-59
2021/01/16 04:01:17;;;;;;;4.38;3.97;;;16.60;51.00;;;;;;5104699;28;20689;-59
2021/01/16 04:03:42;;;;;;;4.10;3.70;;;16.60;51.00;;;;;;5104453;28;20204;-61
2021/01/16 04:06:17;;;;;;;4.43;4.03;;;16.50;51.00;;;;;;5104130;28;20666;-60
2021/01/16 04:08:42;;;;;;;3.90;3.60;;;16.50;51.00;;;;;;5086722;28;20168;-58
2021/01/16 04:11:08;;;;;;;4.55;4.15;;;16.50;50.90;;;;;;5104252;28;20173;-58
2021/01/16 04:13:34;;;;;;;4.70;4.30;;;16.50;50.90;;;;;;5104455;28;20198;-60
2021/01/16 04:15:59;;;;;;;4.10;3.80;;;16.40;50.90;;;;;;5104336;28;20173;-58
2021/01/16 04:18:25;;;;;;;4.55;4.15;;;16.50;50.90;;;;;;5104405;28;20660;-60
2021/01/16 04:20:51;;;;;;;4.53;4.15;;;16.50;51.00;;;;;;5104072;28;20627;-61
2021/01/16 04:23:16;;;;;;;4.68;4.25;;;16.40;50.80;;;;;;5103929;28;20219;-60
2021/01/16 04:25:42;;;;;;;3.80;3.50;;;16.40;50.90;;;;;;5092665;28;20185;-60
2021/01/16 04:28:07;;;;;;;4.13;3.83;;;16.40;50.90;;;;;;5083526;28;20177;-59
2021/01/16 04:30:33;;;;;;;4.03;3.70;;;16.40;50.80;;;;;;5083820;28;20551;-59
2021/01/16 04:32:59;;;;;;;3.95;3.65;;;16.40;50.90;;;;;;5083702;28;20170;-59
2021/01/16 04:35:24;;;;;;;4.13;3.72;;;16.40;50.80;;;;;;5083696;28;20255;-60
2021/01/16 04:37:50;;;;;;;4.25;3.90;;;16.40;50.80;;;;;;5084069;28;20166;-60
2021/01/16 04:40:15;;;;;;;3.88;3.58;;;16.40;50.80;;;;;;5085933;28;20170;-60
2021/01/16 04:42:45;;;;;;;4.90;4.43;;;16.40;50.80;;;;;;5087375;28;20180;-60
2021/01/16 04:45:15;;;;;;;4.18;3.88;;;16.40;50.80;;;;;;5087148;28;20234;-60
2021/01/16 04:47:44;;;;;;;4.35;4.00;;;16.40;50.90;;;;;;5087136;28;20530;-60
2021/01/16 04:50:18;;;;;;;4.32;3.92;;;16.30;50.80;;;;;;5087665;28;20178;-60
2021/01/16 04:52:44;;;;;;;4.50;4.10;;;16.30;50.70;;;;;;5087050;28;20708;-58
2021/01/16 04:55:11;;;;;;;4.60;4.20;;;16.30;50.70;;;;;;5087109;28;20174;-61
2021/01/16 04:57:37;;;;;;;4.22;3.83;;;16.30;50.80;;;;;;5086804;28;20197;-60
2021/01/16 05:00:10;;;;;;;4.18;3.78;;;16.30;50.70;;;;;;5086927;28;20185;-58
2021/01/16 05:02:38;;;;;;;4.57;4.18;;;16.30;50.70;;;;;;5086898;28;20224;-58
2021/01/16 05:05:05;;;;;;;4.32;4.03;;;16.30;50.70;;;;;;5086687;28;21013;-59
2021/01/16 05:07:32;;;;;;;4.60;4.20;;;16.30;50.70;;;;;;5086703;28;20413;-61
2021/01/16 05:09:57;;;;;;;4.22;3.83;;;16.30;50.70;;;;;;5068808;28;20178;-60
2021/01/16 05:12:32;;;;;;;4.53;4.22;;;16.30;50.70;;;;;;5068615;28;20235;-61
2021/01/16 05:15:08;;;;;;;5.90;4.80;;;16.20;50.70;;;;;;5086834;28;20222;-61
2021/01/16 05:17:40;;;;;;;4.68;4.10;;;16.20;50.70;;;;;;5086937;28;20177;-61
2021/01/16 05:20:09;;;;;;;4.57;4.18;;;16.20;50.70;;;;;;5086335;28;20170;-61
2021/01/16 05:22:35;;;;;;;4.35;4.00;;;16.20;50.60;;;;;;5052307;28;20178;-59
2021/01/16 05:25:01;;;;;;;4.47;4.18;;;16.20;50.70;;;;;;5092035;28;20165;-61
2021/01/16 05:27:32;;;;;;;4.63;4.22;;;16.20;50.70;;;;;;5106841;28;20272;-60
2021/01/16 05:30:06;;;;;;;4.20;3.90;;;16.20;50.70;;;;;;5106554;28;20308;-57
2021/01/16 05:32:32;;;;;;;4.20;3.83;;;16.20;50.70;;;;;;5106580;28;20180;-58
2021/01/16 05:35:33;;;;;;;4.82;4.43;;;16.20;50.60;;;;;;5106487;28;20169;-60
2021/01/16 05:37:58;;;;;;;4.82;4.43;;;16.20;50.60;;;;;;4987806;28;20711;-61
2021/01/16 05:40:24;;;;;;;4.25;3.95;;;16.20;50.70;;;;;;5050981;28;20215;-61
2021/01/16 05:42:50;;;;;;;4.65;4.25;;;16.20;50.60;;;;;;5071160;28;20284;-60
2021/01/16 05:45:15;;;;;;;4.43;4.13;;;16.10;50.60;;;;;;5071793;28;20256;-61
2021/01/16 05:47:42;;;;;;;4.15;3.85;;;16.10;50.60;;;;;;5088642;28;20173;-61
2021/01/16 05:50:12;;;;;;;4.57;4.22;;;16.10;50.60;;;;;;5106154;28;20165;-60
2021/01/16 05:52:39;;;;;;;4.25;3.92;;;16.10;50.50;;;;;;5106525;28;20260;-60
2021/01/16 05:55:06;;;;;;;4.60;4.20;;;16.10;50.60;;;;;;5106589;28;20175;-60
2021/01/16 05:57:31;;;;;;;4.82;4.43;;;16.10;50.60;;;;;;5105962;28;20715;-60
2021/01/16 05:59:59;;;;;;;4.30;3.90;;;16.10;50.60;;;;;;5088161;28;20177;-60
2021/01/16 06:02:29;;;;;;;4.35;3.95;;;16.10;50.80;;;;;;5106189;28;20183;-60
2021/01/16 06:04:58;;;;;;;4.15;3.85;;;16.10;50.90;;;;;;5088396;28;20577;-60
2021/01/16 06:07:24;;;;;;;4.13;3.72;;;16.10;50.80;;;;;;5105814;28;20582;-60
2021/01/16 06:09:54;;;;;;;4.15;3.80;;;16.20;50.90;;;;;;5106053;28;20188;-60
2021/01/16 06:12:20;;;;;;;4.05;3.75;;;16.40;50.90;;;;;;5105793;28;20256;-61
2021/01/16 06:14:46;;;;;;;4.25;3.80;;;16.60;50.80;;;;;;5105799;28;20623;-60
2021/01/16 06:17:13;;;;;;;4.28;3.88;;;16.80;50.50;;;;;;5105945;28;20175;-60
2021/01/16 06:19:48;;;;;;;4.05;3.65;;;17.00;50.30;;;;;;5105761;28;20278;-61
2021/01/16 06:22:17;;;;;;;3.97;3.67;;;17.20;50.00;;;;;;5105592;28;20891;-60
2021/01/16 06:24:48;;;;;;;4.38;4.03;;;17.40;49.60;;;;;;5102493;28;20209;-61
2021/01/16 06:27:24;;;;;;;3.88;3.58;;;17.60;49.30;;;;;;5085216;28;20273;-60
2021/01/16 06:29:57;;;;;;;3.67;3.30;;;17.80;48.90;;;;;;5085380;28;20189;-60
2021/01/16 06:32:23;;;;;;;3.75;3.45;;;17.90;48.70;;;;;;5084889;28;21009;-58
2021/01/16 06:34:52;;;;;;;3.70;3.40;;;17.90;48.60;;;;;;5084958;28;20272;-57
2021/01/16 06:37:17;;;;;;;3.42;3.20;;;18.00;48.50;;;;;;5067642;28;20188;-60
2021/01/16 06:39:47;;;;;;;4.00;3.65;;;18.00;48.40;;;;;;5084814;28;20178;-60
2021/01/16 06:42:23;;;;;;;3.70;3.30;;;18.20;48.30;;;;;;5067620;28;20264;-60
2021/01/16 06:44:49;;;;;;;4.38;3.97;;;18.20;48.20;;;;;;5084703;28;20233;-60
2021/01/16 06:47:14;;;;;;;3.80;3.50;;;18.20;48.20;;;;;;5067026;28;20269;-61
2021/01/16 06:49:40;;;;;;;3.45;3.15;;;18.20;48.10;;;;;;5084924;28;20178;-61
2021/01/16 06:52:06;;;;;;;3.63;3.33;;;18.30;48.10;;;;;;5085212;28;20174;-60
2021/01/16 06:54:36;;;;;;;3.38;3.08;;;18.30;48.10;;;;;;5084878;28;20220;-60
2021/01/16 06:57:07;;;;;;;3.65;3.35;;;18.30;48.10;;;;;;5084514;28;20591;-61
2021/01/16 06:59:34;;;;;;;3.70;3.40;;;18.20;48.00;;;;;;5084631;28;20169;-60
2021/01/16 07:01:59;;;;;;;3.40;3.20;;;18.20;48.30;;;;;;5083778;28;20260;-60
2021/01/16 07:04:28;;;;;;;3.47;3.17;;;18.00;48.40;;;;;;5084500;28;20288;-59
2021/01/16 07:06:55;;;;;;;3.45;3.15;;;17.90;48.50;;;;;;5067150;28;20169;-61
2021/01/16 07:09:22;;;;;;;3.35;3.05;;;17.90;48.80;;;;;;5084674;28;20177;-61
2021/01/16 07:11:48;;;;;;;3.28;3.05;;;17.90;48.80;;;;;;5084496;28;20231;-60
2021/01/16 07:14:14;;;;;;;3.85;3.55;;;17.80;48.80;;;;;;5084451;28;20170;-60
2021/01/16 07:16:43;;;;;;;3.97;3.67;;;17.80;48.80;;;;;;5084476;28;20231;-60
2021/01/16 07:19:18;;;;;;;3.10;2.80;;;17.80;48.80;;;;;;5084512;28;20261;-61
2021/01/16 07:21:43;;;;;;;3.60;3.30;;;17.90;48.70;;;;;;5084296;28;20176;-60
2021/01/16 07:24:10;;;;;;;3.90;3.60;;;17.90;48.70;;;;;;5066370;28;20548;-60
2021/01/16 07:26:36;;;;;;;3.67;3.38;;;17.90;48.70;;;;;;5084858;28;20555;-59
2021/01/16 07:29:08;;;;;;;3.70;3.40;;;17.90;48.50;;;;;;5104859;28;20677;-59
2021/01/16 07:31:36;;;;;;;3.47;3.17;;;17.90;48.50;;;;;;5104781;28;20276;-60
2021/01/16 07:34:02;;;;;;;3.75;3.45;;;17.90;48.70;;;;;;5104984;28;20220;-58
2021/01/16 07:36:28;;;;;;;3.17;2.97;;;17.80;48.70;;;;;;5104837;28;20205;-60
2021/01/16 07:38:53;;;;;;;3.92;3.42;;;17.70;48.90;;;;;;5069875;28;20181;-59
2021/01/16 07:41:20;;;;;;;3.45;3.15;;;17.70;49.10;;;;;;5086489;28;20180;-60
2021/01/16 07:43:49;;;;;;;3.47;3.17;;;17.60;49.20;;;;;;5086537;28;21046;-61
2021/01/16 07:46:18;;;;;;;3.50;3.25;;;17.60;49.10;;;;;;5104546;28;20260;-60
2021/01/16 07:48:49;;;;;;;3.55;3.25;;;17.60;49.10;;;;;;5104679;28;20638;-59
2021/01/16 07:51:17;;;;;;;3.53;3.22;;;17.60;49.00;;;;;;5104556;28;20642;-60
2021/01/16 07:53:43;;;;;;;3.60;3.30;;;17.60;49.00;;;;;;5104112;28;20224;-61
2021/01/16 07:56:19;;;;;;;3.60;3.30;;;17.60;49.00;;;;;;5104619;28;20260;-59
2021/01/16 07:58:53;;;;;;;3.60;3.28;;;17.70;48.90;;;;;;5087205;28;20179;-60
2021/01/16 08:01:22;;;;;;;3.53;3.22;;;17.70;48.80;;;;;;5087145;28;20173;-60
2021/01/16 08:04:06;;;;;;;3.45;3.15;;;17.60;48.80;;;;;;5086502;28;20208;-60
2021/01/16 08:06:32;;;;;;;3.53;3.22;;;17.60;49.00;;;;;;5103646;28;20969;-59
2021/01/16 08:09:03;;;;;;;3.67;3.38;;;17.50;49.00;;;;;;5104233;28;20165;-59
2021/01/16 08:11:30;;;;;;;3.35;3.15;;;17.40;49.00;;;;;;5086353;28;20177;-60
2021/01/16 08:14:00;;;;;;;3.55;3.25;;;17.40;49.20;;;;;;5105532;28;20908;-60
2021/01/16 08:16:25;;;;;;;4.10;3.70;;;17.40;49.30;;;;;;5108425;28;20200;-60
2021/01/16 08:18:53;;;;;;;3.92;3.58;;;17.40;49.30;;;;;;5108154;28;20252;-60
2021/01/16 08:21:19;;;;;;;3.50;3.20;;;17.50;49.40;;;;;;5090032;28;20166;-65
2021/01/16 08:23:50;;;;;;;4.18;3.60;;;17.40;49.20;;;;;;5089728;28;20208;-60
2021/01/16 08:26:19;;;;;;;3.60;3.30;;;17.50;49.60;;;;;;5091743;28;20190;-62
2021/01/16 08:28:45;;;;;;;4.10;3.20;;;17.40;49.60;;;;;;5087696;28;20219;-60
2021/01/16 08:31:27;;;;;;;3.40;3.10;;;17.40;49.80;;;;;;5087644;28;20170;-61
2021/01/16 08:33:53;;;;;;;3.65;3.35;;;17.40;49.70;;;;;;5087389;28;20612;-59
2021/01/16 08:36:19;;;;;;;3.60;3.30;;;17.30;49.90;;;;;;5069180;28;20174;-60
2021/01/16 08:38:46;;;;;;;3.60;3.30;;;17.30;50.00;;;;;;5087433;28;20162;-61
2021/01/16 08:41:11;;;;;;;3.75;3.40;;;17.20;50.20;;;;;;5087310;28;20174;-61
2021/01/16 08:43:42;;;;;;;3.28;3.03;;;17.20;50.40;;;;;;5052123;28;20217;-62
2021/01/16 08:46:12;;;;;;;3.83;3.53;;;17.20;50.60;;;;;;5069646;28;20174;-61
2021/01/16 08:48:38;;;;;;;3.58;3.28;;;17.30;50.70;;;;;;5087053;28;20177;-61
2021/01/16 08:51:28;;;;;;;3.00;2.80;;;17.30;51.10;;;;;;5086870;28;20184;-61
2021/01/16 08:54:12;;;;;;;3.85;3.42;;;17.20;50.40;;;;;;5040128;28;20318;-60
2021/01/16 08:56:38;;;;;;;3.95;3.30;;;17.30;50.80;;;;;;5086870;28;20177;-62
2021/01/16 08:59:21;;;;;;;7.72;3.95;;;17.30;51.10;;;;;;5087332;28;20265;-63
2021/01/16 09:02:03;;;;;;;5.07;3.72;;;17.30;51.50;;;;;;5086912;28;20162;-61
2021/01/16 09:04:36;;;;;;;4.93;3.83;;;17.20;51.90;;;;;;5086897;28;20209;-62
2021/01/16 09:07:15;;;;;;;5.55;4.00;;;17.20;51.50;;;;;;5086793;28;20174;-63
2021/01/16 09:09:57;;;;;;;4.25;3.30;;;17.20;52.00;;;;;;5069321;28;20177;-65
2021/01/16 09:12:33;;;;;;;3.95;3.55;;;17.20;51.80;;;;;;5086661;28;20177;-61
2021/01/16 09:15:27;;;;;;;4.53;3.72;;;17.30;51.50;;;;;;5086647;28;20177;-64
2021/01/16 09:18:01;;;;;;;4.25;3.75;;;17.30;51.80;;;;;;5086673;28;20972;-65
2021/01/16 09:20:30;;;;;;;6.82;3.97;;;17.40;51.60;;;;;;5086692;28;20176;-65
2021/01/16 09:22:55;;;;;;;5.22;4.18;;;17.40;51.50;;;;;;5068956;28;20209;-65
2021/01/16 09:25:24;;;;;;;5.15;3.95;;;17.40;51.40;;;;;;5076075;28;20249;-66
2021/01/16 09:27:51;;;;;;;4.28;3.83;;;17.40;51.30;;;;;;5107099;28;20179;-67
2021/01/16 09:30:24;;;;;;;4.68;4.18;;;17.50;51.20;;;;;;5106789;28;20195;-67
2021/01/16 09:32:49;;;;;;;4.40;4.00;;;17.50;51.20;;;;;;5107006;28;20209;-64
2021/01/16 09:35:34;;;;;;;5.22;4.22;;;17.50;51.10;;;;;;5106572;28;20728;-65
2021/01/16 09:38:01;;;;;;;4.40;3.97;;;17.60;51.00;;;;;;5088824;28;20196;-66
2021/01/16 09:40:34;;;;;;;4.63;3.97;;;17.70;51.00;;;;;;5106773;28;20176;-66
2021/01/16 09:43:00;;;;;;;4.55;4.07;;;17.70;50.80;;;;;;5106683;28;20564;-65
2021/01/16 09:45:26;;;;;;;5.13;3.83;;;17.60;50.70;;;;;;5071467;28;20177;-65
2021/01/16 09:47:53;;;;;;;5.93;4.25;;;17.50;50.90;;;;;;5085338;28;20646;-67
2021/01/16 09:50:20;;;;;;;5.18;4.30;;;17.50;50.70;;;;;;5106723;28;20169;-67
2021/01/16 09:52:50;;;;;;;3.90;3.50;;;17.40;51.00;;;;;;5088726;28;20630;-65
2021/01/16 09:55:21;;;;;;;4.90;4.00;;;17.40;51.70;;;;;;5106238;28;20169;-64
2021/01/16 09:57:46;;;;;;;4.32;3.85;;;17.40;51.10;;;;;;5106352;28;20175;-64
2021/01/16 10:00:29;;;;;;;4.22;3.58;;;17.40;51.00;;;;;;5106278;28;20357;-64
2021/01/16 10:03:10;;;;;;;6.93;3.85;;;17.50;51.50;;;;;;5088510;28;20264;-64
2021/01/16 10:05:37;;;;;;;6.00;3.55;;;17.50;51.20;;;;;;5105665;28;20654;-65
2021/01/16 10:08:04;;;;;;;4.18;3.75;;;17.60;51.10;;;;;;5088208;28;20174;-64
2021/01/16 10:10:50;;;;;;;4.00;3.60;;;17.70;51.10;;;;;;5088188;28;20180;-65
2021/01/16 10:13:31;;;;;;;4.78;3.90;;;17.70;50.90;;;;;;5105023;28;20185;-65
2021/01/16 10:15:58;;;;;;;4.63;4.03;;;17.70;50.90;;;;;;5105872;28;20180;-64
2021/01/16 10:18:26;;;;;;;5.38;4.22;;;17.70;51.00;;;;;;5105694;28;20288;-65
2021/01/16 10:21:21;;;;;;;3.97;3.60;;;17.70;51.10;;;;;;5087517;28;21032;-63
2021/01/16 10:23:46;;;;;;;4.25;3.85;;;17.70;51.20;;;;;;5083781;28;20213;-65
2021/01/16 10:26:13;;;;;;;4.80;4.10;;;17.60;51.20;;;;;;5071744;28;20170;-67
2021/01/16 10:28:59;;;;;;;4.85;3.70;;;17.60;51.30;;;;;;5063812;28;20305;-65
2021/01/16 10:31:25;;;;;;;4.18;3.78;;;17.60;51.40;;;;;;5043475;28;20198;-65
2021/01/16 10:33:50;;;;;;;3.90;3.50;;;17.60;51.40;;;;;;5063718;28;20171;-65
2021/01/16 10:36:18;;;;;;;4.43;3.55;;;17.70;51.40;;;;;;5064955;28;20181;-67
2021/01/16 10:38:44;;;;;;;4.07;3.28;;;17.70;51.30;;;;;;5065055;28;20171;-65
2021/01/16 10:41:10;;;;;;;3.38;3.08;;;17.70;51.30;;;;;;5064863;28;20560;-66
2021/01/16 10:43:36;;;;;;;4.32;3.33;;;17.70;51.30;;;;;;5064769;28;20245;-67
2021/01/16 10:46:32;;;;;;;4.47;3.70;;;17.70;51.40;;;;;;5063727;28;20234;-65
2021/01/16 10:49:22;;;;;;;3.97;3.30;;;17.60;51.40;;;;;;5064562;28;20541;-65
2021/01/16 10:51:51;;;;;;;3.88;3.47;;;17.60;51.50;;;;;;5064833;28;20173;-66
2021/01/16 10:54:18;;;;;;;4.90;3.47;;;17.50;51.60;;;;;;5064838;28;20174;-65
2021/01/16 10:56:45;;;;;;;3.75;3.45;;;17.50;51.60;;;;;;5063404;28;20606;-64
2021/01/16 10:59:12;;;;;;;3.95;3.30;;;17.50;51.60;;;;;;5064696;28;20266;-65
2021/01/16 11:01:47;;;;;;;4.65;3.22;;;17.60;51.70;;;;;;5064685;28;20193;-64
2021/01/16 11:04:35;;;;;;;5.80;3.70;;;17.60;51.60;;;;;;5064458;28;20325;-64
2021/01/16 11:07:02;;;;;;;5.80;4.40;;;17.60;51.50;;;;;;5046835;28;20171;-65
2021/01/16 11:09:33;;;;;;;4.05;3.67;;;17.60;51.60;;;;;;5064333;28;20609;-64
2021/01/16 11:12:06;;;;;;;3.60;3.30;;;17.60;51.60;;;;;;5064063;28;20498;-63
2021/01/16 11:14:35;;;;;;;4.35;3.45;;;17.50;51.70;;;;;;5068600;28;20528;-64
2021/01/16 11:17:04;;;;;;;4.03;3.30;;;17.50;51.70;;;;;;5078122;28;20185;-65
2021/01/16 11:19:36;;;;;;;4.53;3.70;;;17.50;51.60;;;;;;5065998;28;20239;-66
2021/01/16 11:22:08;;;;;;;5.00;3.28;;;17.50;51.50;;;;;;5066650;28;20163;-64
2021/01/16 11:24:54;;;;;;;4.00;3.30;;;17.60;51.30;;;;;;5084087;28;20655;-64
2021/01/16 11:27:21;;;;;;;3.60;3.30;;;17.80;51.00;;;;;;5084117;28;20236;-66
2021/01/16 11:29:46;;;;;;;3.70;3.40;;;18.10;50.70;;;;;;5097381;28;20193;-65
2021/01/16 11:32:17;;;;;;;3.38;3.13;;;18.40;50.30;;;;;;5088017;28;20275;-63
2021/01/16 11:35:07;;;;;;;3.63;3.25;;;18.70;49.50;;;;;;5083956;28;20178;-63
2021/01/16 11:37:49;;;;;;;4.10;3.45;;;19.00;48.90;;;;;;5052291;28;20204;-64
2021/01/16 11:40:25;;;;;;;3.90;3.15;;;19.20;48.50;;;;;;5084159;28;20162;-64
2021/01/16 11:43:00;;;;;;;3.95;3.40;;;19.30;48.40;;;;;;5084197;28;20986;-63
2021/01/16 11:45:26;;;;;;;3.90;3.20;;;19.40;48.20;;;;;;5066292;28;20170;-64
2021/01/16 11:47:52;;;;;;;3.38;3.10;;;19.50;48.00;;;;;;5089572;28;20240;-64
2021/01/16 11:50:19;;;;;;;4.53;3.33;;;19.60;47.90;;;;;;5111429;28;20168;-63
2021/01/16 11:52:45;;;;;;;3.47;3.08;;;19.80;47.80;;;;;;5076507;28;20165;-64
2021/01/16 11:55:11;;;;;;;3.97;3.25;;;19.70;47.70;;;;;;5111521;28;20534;-63
2021/01/16 11:57:36;;;;;;;3.42;3.10;;;19.70;47.70;;;;;;5111199;28;20252;-65
2021/01/16 12:00:03;;;;;;;10.35;3.47;;;19.80;47.60;;;;;;5110656;28;20660;-62
2021/01/16 12:02:29;;;;;;;3.65;3.35;;;19.80;47.60;;;;;;5110727;28;20165;-65
2021/01/16 12:04:55;;;;;;;4.10;3.20;;;19.80;47.70;;;;;;5092911;28;20730;-66
2021/01/16 12:07:20;;;;;;;4.53;3.00;;;19.80;47.80;;;;;;5111159;28;20198;-67
2021/01/16 12:09:46;;;;;;;3.40;3.05;;;19.80;47.90;;;;;;5093164;28;20239;-67
2021/01/16 12:12:12;;;;;;;3.20;2.90;;;19.80;47.90;;;;;;5093127;28;20250;-63
2021/01/16 12:14:39;;;;;;;4.18;3.00;;;19.60;48.00;;;;;;5111115;28;20169;-62
2021/01/16 12:17:13;;;;;;;3.92;3.22;;;19.60;48.10;;;;;;5093002;28;20177;-65
2021/01/16 12:19:39;;;;;;;5.13;3.28;;;19.60;48.20;;;;;;5093703;28;20630;-65
2021/01/16 12:22:09;;;;;;;5.40;3.10;;;19.60;48.30;;;;;;5067469;28;20257;-65
2021/01/16 12:24:35;;;;;;;3.47;2.78;;;19.50;48.80;;;;;;5068700;28;20568;-61
2021/01/16 12:27:03;;;;;;;4.25;2.85;;;19.50;48.30;;;;;;5069979;28;20185;-62
2021/01/16 12:29:37;;;;;;;3.85;3.03;;;19.60;48.20;;;;;;5068938;28;20228;-62
2021/01/16 12:32:10;;;;;;;3.17;2.88;;;19.70;48.20;;;;;;5069147;28;20223;-63
2021/01/16 12:34:49;;;;;;;3.53;2.58;;;19.70;48.20;;;;;;5069334;28;20265;-63
2021/01/16 12:37:24;;;;;;;3.30;2.78;;;19.70;48.00;;;;;;5070235;28;20205;-64
2021/01/16 12:39:49;;;;;;;3.20;2.90;;;19.80;48.00;;;;;;5070111;28;20190;-63
2021/01/16 12:42:15;;;;;;;2.97;2.78;;;19.80;47.90;;;;;;5070053;28;20198;-64
2021/01/16 12:44:40;;;;;;;4.05;2.70;;;19.80;47.90;;;;;;5068857;28;20607;-62
2021/01/16 12:47:06;;;;;;;2.95;2.75;;;19.90;47.80;;;;;;5068795;28;20511;-62
2021/01/16 12:49:32;;;;;;;4.68;3.03;;;19.80;48.00;;;;;;5068759;28;20209;-63
2021/01/16 12:51:57;;;;;;;4.60;2.97;;;19.80;48.10;;;;;;5068428;28;20175;-64
2021/01/16 12:54:23;;;;;;;3.80;2.80;;;19.80;48.10;;;;;;5068656;28;20189;-65
2021/01/16 12:56:48;;;;;;;3.20;2.90;;;19.70;48.10;;;;;;5068850;28;20173;-65
2021/01/16 12:59:17;;;;;;;2.90;2.70;;;19.70;48.20;;;;;;5069170;28;20644;-64